Time;durP1;ratioP1;P1;durP2;ratioP2;P2;SDS_P1;SDS_P2;PMS_P1;PMS_P2;Temp;Humidity;BMP_temperature;BMP_pressure;BME280_temperature;BME280_humidity;BME280_pressure;Samples;Min_cycle;Max_cycle;Signal;HPM_P1;HPM_P2
2022/03/30 00:00:22;;;;;;;10.13;9.10;;;;;21.40;99608.00;;;;2078779;28;20264;-48
2022/03/30 00:01:23;;;;;;;11.50;10.40;;;;;21.40;99607.00;;;;2078766;28;20214;-48
2022/03/30 00:02:23;;;;;;;10.90;9.80;;;;;21.40;99602.00;;;;2078404;28;20846;-49
2022/03/30 00:03:23;;;;;;;11.87;10.63;;;;;21.40;99598.00;;;;2078604;28;20719;-48
2022/03/30 00:04:24;;;;;;;12.30;10.10;;;;;21.40;99606.00;;;;2078570;28;20697;-48
2022/03/30 00:05:24;;;;;;;12.20;9.97;;;;;21.40;99605.00;;;;2078095;28;21879;-49
2022/03/30 00:06:24;;;;;;;11.70;10.50;;;;;21.40;99597.00;;;;2078748;28;20299;-49
2022/03/30 00:07:28;;;;;;;10.60;9.60;;;;;21.40;99608.00;;;;2076674;28;20224;-48
2022/03/30 00:08:28;;;;;;;10.70;9.57;;;;;21.40;99600.00;;;;2078154;28;20292;-48
2022/03/30 00:09:29;;;;;;;10.10;9.17;;;;;21.40;99592.00;;;;2078641;28;20336;-48
2022/03/30 00:10:29;;;;;;;11.00;9.90;;;;;21.40;99594.00;;;;2078584;28;20241;-48
2022/03/30 00:11:29;;;;;;;11.07;9.97;;;;;21.40;99594.00;;;;2078108;28;20222;-48
2022/03/30 00:12:30;;;;;;;11.10;10.00;;;;;21.40;99595.00;;;;2078263;28;20564;-49
2022/03/30 00:13:30;;;;;;;11.07;9.83;;;;;21.40;99593.00;;;;2078701;28;20217;-49
2022/03/30 00:14:31;;;;;;;12.97;10.53;;;;;21.40;99598.00;;;;2078557;28;20225;-49
2022/03/30 00:15:31;;;;;;;10.47;9.40;;;;;21.40;99593.00;;;;2077947;28;20228;-49
2022/03/30 00:16:33;;;;;;;11.00;9.90;;;;;21.40;99599.00;;;;2078455;28;20635;-48
2022/03/30 00:17:34;;;;;;;10.00;9.00;;;;;21.40;99592.00;;;;2072235;28;20233;-49
2022/03/30 00:18:34;;;;;;;11.87;10.67;;;;;21.40;99590.00;;;;2070505;28;20222;-49
2022/03/30 00:19:34;;;;;;;10.90;9.80;;;;;21.40;99589.00;;;;2070485;28;20225;-49
2022/03/30 00:20:35;;;;;;;13.30;9.40;;;;;21.40;99592.00;;;;2075078;28;20229;-49
2022/03/30 00:21:35;;;;;;;12.20;10.40;;;;;21.40;99585.00;;;;2067327;28;20234;-49
2022/03/30 00:22:38;;;;;;;11.43;10.23;;;;;21.30;99588.00;;;;2070315;28;20210;-49
2022/03/30 00:23:39;;;;;;;12.18;10.07;;;;;21.40;99587.00;;;;2069835;28;20229;-50
2022/03/30 00:24:39;;;;;;;10.50;9.37;;;;;21.30;99592.00;;;;2075773;28;20216;-49
2022/03/30 00:25:39;;;;;;;11.20;10.00;;;;;21.30;99592.00;;;;2077971;28;20455;-49
2022/03/30 00:26:40;;;;;;;10.77;9.70;;;;;21.30;99592.00;;;;2078631;28;20236;-49
2022/03/30 00:27:46;;;;;;;10.40;9.30;;;;;21.30;99590.00;;;;2078395;28;20308;-49
2022/03/30 00:28:46;;;;;;;11.80;9.70;;;;;21.30;99589.00;;;;2078553;28;20266;-49
2022/03/30 00:29:47;;;;;;;11.23;9.97;;;;;21.30;99587.00;;;;2074859;28;20259;-49
2022/03/30 00:30:47;;;;;;;11.00;9.90;;;;;21.30;99584.00;;;;2070466;28;20225;-49
2022/03/30 00:31:47;;;;;;;10.20;9.20;;;;;21.30;99593.00;;;;2070416;28;20218;-49
2022/03/30 00:32:48;;;;;;;11.90;9.33;;;;;21.30;99602.00;;;;2070431;28;20214;-49
2022/03/30 00:33:50;;;;;;;10.20;9.20;;;;;21.30;99594.00;;;;2070267;28;20686;-49
2022/03/30 00:34:50;;;;;;;11.75;10.55;;;;;21.30;99581.00;;;;2070327;28;20206;-49
2022/03/30 00:35:51;;;;;;;9.97;8.67;;;;;21.30;99588.00;;;;2069769;28;20214;-49
2022/03/30 00:36:51;;;;;;;10.97;9.50;;;;;21.30;99580.00;;;;2072550;28;20214;-49
2022/03/30 00:37:52;;;;;;;10.90;9.77;;;;;21.30;99582.00;;;;2078709;28;20709;-49
2022/03/30 00:38:52;;;;;;;10.80;9.53;;;;;21.30;99585.00;;;;2078503;28;20691;-48
2022/03/30 00:39:53;;;;;;;11.03;9.37;;;;;21.30;99587.00;;;;2078675;28;20980;-48
2022/03/30 00:40:54;;;;;;;10.10;9.10;;;;;21.30;99588.00;;;;2078473;28;20777;-49
2022/03/30 00:41:54;;;;;;;9.90;9.00;;;;;21.30;99589.00;;;;2077844;28;20464;-49
2022/03/30 00:42:54;;;;;;;10.57;9.47;;;;;21.30;99588.00;;;;2077518;28;20259;-48
2022/03/30 00:43:54;;;;;;;10.40;9.37;;;;;21.30;99583.00;;;;2077703;28;20221;-49
2022/03/30 00:44:55;;;;;;;10.47;9.47;;;;;21.30;99580.00;;;;2077619;28;20320;-49
2022/03/30 00:45:55;;;;;;;10.07;9.07;;;;;21.30;99584.00;;;;2077438;28;20228;-49
2022/03/30 00:46:55;;;;;;;11.17;9.70;;;;;21.30;99588.00;;;;2078258;28;20267;-48
2022/03/30 00:47:56;;;;;;;11.20;10.00;;;;;21.30;99590.00;;;;2077547;28;20210;-48
2022/03/30 00:48:56;;;;;;;11.73;9.93;;;;;21.30;99584.00;;;;2077457;28;20220;-48
2022/03/30 00:49:56;;;;;;;11.63;9.80;;;;;21.30;99589.00;;;;2075558;28;20213;-48
2022/03/30 00:50:57;;;;;;;10.20;8.70;;;;;21.30;99590.00;;;;2072599;28;20248;-49
2022/03/30 00:51:59;;;;;;;11.43;9.40;;;;;21.30;99585.00;;;;2077595;28;20760;-49
2022/03/30 00:52:59;;;;;;;10.52;9.50;;;;;21.30;99585.00;;;;2077748;28;20705;-49
2022/03/30 00:53:59;;;;;;;10.40;9.30;;;;;21.30;99586.00;;;;2078006;28;20228;-48
2022/03/30 00:55:00;;;;;;;11.33;9.50;;;;;21.30;99585.00;;;;2078332;28;20300;-49
2022/03/30 00:56:00;;;;;;;10.50;9.13;;;;;21.30;99573.00;;;;2076855;28;20221;-48
2022/03/30 00:57:01;;;;;;;11.40;9.60;;;;;21.00;99587.00;;;;2069432;28;20222;-49
2022/03/30 00:58:02;;;;;;;10.63;9.53;;;;;21.30;99586.00;;;;2075591;28;20263;-48
2022/03/30 00:59:05;;;;;;;9.70;8.70;;;;;21.30;99589.00;;;;2069489;28;20269;-49
2022/03/30 01:00:06;;;;;;;11.45;10.07;;;;;21.10;99586.00;;;;2070385;28;20218;-48
2022/03/30 01:01:07;;;;;;;9.97;8.87;;;;;21.30;99592.00;;;;2069783;28;20222;-48
2022/03/30 01:02:07;;;;;;;11.03;9.37;;;;;21.30;99587.00;;;;2071994;28;20218;-48
2022/03/30 01:03:08;;;;;;;9.63;8.57;;;;;21.30;99584.00;;;;2078321;28;20931;-48
2022/03/30 01:04:08;;;;;;;12.40;10.23;;;;;21.30;99582.00;;;;2078558;28;20213;-48
2022/03/30 01:05:09;;;;;;;11.57;10.00;;;;;21.30;99585.00;;;;2077140;28;20252;-49
2022/03/30 01:06:09;;;;;;;10.80;9.70;;;;;21.20;99585.00;;;;2075723;28;20220;-49
2022/03/30 01:07:09;;;;;;;10.50;9.37;;;;;21.20;99580.00;;;;2074942;28;20218;-48
2022/03/30 01:08:10;;;;;;;10.70;9.63;;;;;21.20;99588.00;;;;2070629;28;20245;-49
2022/03/30 01:09:10;;;;;;;10.67;9.57;;;;;21.20;99584.00;;;;2072704;28;20214;-48
2022/03/30 01:10:12;;;;;;;10.70;8.80;;;;;21.20;99582.00;;;;2075415;28;20248;-48
2022/03/30 01:11:12;;;;;;;9.68;8.65;;;;;21.20;99582.00;;;;2078229;28;20210;-48
2022/03/30 01:12:12;;;;;;;10.60;9.23;;;;;21.20;99579.00;;;;2077896;28;20220;-49
2022/03/30 01:13:13;;;;;;;11.60;10.00;;;;;21.20;99571.00;;;;2078227;28;20700;-49
2022/03/30 01:14:13;;;;;;;10.17;9.27;;;;;21.20;99577.00;;;;2077838;28;20751;-48
2022/03/30 01:15:14;;;;;;;10.37;9.20;;;;;21.20;99574.00;;;;2077807;28;20268;-49
2022/03/30 01:16:15;;;;;;;9.67;8.77;;;;;21.20;99522.00;;;;2077869;28;20222;-49
2022/03/30 01:17:15;;;;;;;10.65;9.55;;;;;21.20;99571.00;;;;2078041;28;20951;-55
2022/03/30 01:18:16;;;;;;;10.27;9.23;;;;;21.20;99573.00;;;;2078375;28;20210;-51
2022/03/30 01:19:16;;;;;;;9.67;8.70;;;;;21.20;99566.00;;;;2078394;28;20214;-49
2022/03/30 01:20:18;;;;;;;11.37;9.67;;;;;21.20;99566.00;;;;2078111;28;20240;-49
2022/03/30 01:21:18;;;;;;;10.93;9.52;;;;;21.20;99569.00;;;;2073837;28;20398;-49
2022/03/30 01:22:19;;;;;;;10.60;8.70;;;;;21.20;99564.00;;;;2070149;28;20214;-49
2022/03/30 01:23:19;;;;;;;10.90;9.10;;;;;21.20;99566.00;;;;2070227;28;20633;-49
2022/03/30 01:24:19;;;;;;;10.60;9.50;;;;;21.20;99560.00;;;;2069967;28;20678;-48
2022/03/30 01:25:20;;;;;;;10.27;9.27;;;;;21.20;99553.00;;;;2069809;28;20738;-49
2022/03/30 01:26:20;;;;;;;9.70;8.70;;;;;21.20;99550.00;;;;2069504;28;20703;-49
2022/03/30 01:27:20;;;;;;;9.53;8.73;;;;;21.20;99562.00;;;;2072081;28;20234;-49
2022/03/30 01:28:22;;;;;;;10.03;8.70;;;;;21.20;99550.00;;;;2078526;28;20217;-49
2022/03/30 01:33:20;;;;;;;12.77;9.73;;;;;21.20;99561.00;;;;2075991;28;20214;-50
2022/03/30 01:34:21;;;;;;;9.80;8.77;;;;;21.20;99552.00;;;;2076189;28;20214;-49
2022/03/30 01:35:21;;;;;;;10.83;8.70;;;;;21.20;99554.00;;;;2075680;28;20317;-49
2022/03/30 01:36:22;;;;;;;10.30;9.20;;;;;21.20;99550.00;;;;2079771;28;20214;-49
2022/03/30 01:37:23;;;;;;;10.57;9.48;;;;;21.20;99553.00;;;;2079560;28;20961;-49
2022/03/30 01:38:23;;;;;;;12.13;10.13;;;;;21.20;99545.00;;;;2079997;28;20300;-49
2022/03/30 01:39:23;;;;;;;9.37;8.37;;;;;21.20;99542.00;;;;2079599;28;20209;-49
2022/03/30 01:40:24;;;;;;;10.33;9.10;;;;;21.20;99547.00;;;;2079770;28;20223;-49
2022/03/30 01:41:24;;;;;;;9.50;8.60;;;;;21.20;99548.00;;;;2072503;28;20210;-49
2022/03/30 01:42:25;;;;;;;9.57;8.57;;;;;21.20;99540.00;;;;2072329;28;20668;-49
2022/03/30 01:43:25;;;;;;;10.60;9.03;;;;;21.20;99546.00;;;;2077441;28;20260;-49
2022/03/30 01:44:26;;;;;;;10.20;9.20;;;;;21.20;99545.00;;;;2070891;28;20265;-49
2022/03/30 01:45:26;;;;;;;12.10;9.40;;;;;21.20;99540.00;;;;2071065;28;20222;-49
2022/03/30 01:46:26;;;;;;;11.40;10.20;;;;;21.20;99544.00;;;;2071354;28;20218;-49
2022/03/30 01:47:27;;;;;;;11.40;10.30;;;;;21.20;99547.00;;;;2071076;28;20687;-49
2022/03/30 01:48:27;;;;;;;10.20;9.07;;;;;21.20;99545.00;;;;2071515;28;20222;-51
2022/03/30 01:49:27;;;;;;;11.27;10.17;;;;;21.10;99541.00;;;;2074860;28;20387;-49
2022/03/30 01:50:29;;;;;;;9.90;8.90;;;;;21.10;99535.00;;;;2076302;28;20677;-49
2022/03/30 01:51:29;;;;;;;11.60;10.02;;;;;21.10;99536.00;;;;2079492;28;20275;-49
2022/03/30 01:52:29;;;;;;;10.43;8.60;;;;;21.10;99533.00;;;;2079608;28;20689;-49
2022/03/30 01:53:30;;;;;;;12.80;9.30;;;;;21.10;99549.00;;;;2079652;28;20715;-49
2022/03/30 01:54:34;;;;;;;9.57;8.57;;;;;21.10;99540.00;;;;2077370;28;20748;-49
2022/03/30 01:55:34;;;;;;;10.23;9.15;;;;;21.10;99529.00;;;;2072677;28;20261;-49
2022/03/30 01:56:35;;;;;;;10.20;8.73;;;;;21.10;99532.00;;;;2077260;28;20217;-49
2022/03/30 01:57:35;;;;;;;11.43;9.13;;;;;21.10;99533.00;;;;2067391;28;20214;-48
2022/03/30 01:58:36;;;;;;;10.87;9.73;;;;;21.10;99529.00;;;;2071046;28;20226;-49
2022/03/30 01:59:36;;;;;;;10.87;8.77;;;;;21.10;99532.00;;;;2070576;28;20222;-49
2022/03/30 02:00:37;;;;;;;10.43;9.33;;;;;21.10;99523.00;;;;2070921;28;20214;-48
2022/03/30 02:01:38;;;;;;;12.50;9.83;;;;;21.10;99524.00;;;;2067554;28;20216;-48
2022/03/30 02:02:39;;;;;;;11.77;9.67;;;;;21.10;99524.00;;;;2070316;28;20464;-49
2022/03/30 02:03:39;;;;;;;10.80;9.70;;;;;21.10;99520.00;;;;2072086;28;20460;-48
2022/03/30 02:04:40;;;;;;;12.30;9.53;;;;;21.10;99521.00;;;;2077373;28;20248;-49
2022/03/30 02:05:40;;;;;;;11.50;9.30;;;;;21.10;99523.00;;;;2070765;28;20210;-49
2022/03/30 02:06:40;;;;;;;11.70;9.40;;;;;21.10;99522.00;;;;2071400;28;20214;-49
2022/03/30 02:07:41;;;;;;;9.93;8.73;;;;;21.10;99519.00;;;;2072471;28;20232;-49
2022/03/30 02:08:42;;;;;;;12.70;9.60;;;;;21.10;99517.00;;;;2079300;28;20206;-48
2022/03/30 02:09:42;;;;;;;9.80;8.90;;;;;21.10;99515.00;;;;2079573;28;20297;-49
2022/03/30 02:10:43;;;;;;;11.07;9.63;;;;;21.10;99510.00;;;;2079173;28;20528;-49
2022/03/30 02:11:43;;;;;;;10.17;9.17;;;;;21.10;99510.00;;;;2079484;28;20303;-49
2022/03/30 02:12:43;;;;;;;11.60;9.70;;;;;21.10;99510.00;;;;2079249;28;20689;-48
2022/03/30 02:13:44;;;;;;;11.87;9.67;;;;;21.10;99507.00;;;;2078741;28;20580;-49
2022/03/30 02:14:44;;;;;;;10.20;8.70;;;;;21.10;99506.00;;;;2078606;28;20228;-49
2022/03/30 02:15:44;;;;;;;10.07;9.07;;;;;21.10;99506.00;;;;2078538;28;20300;-49
2022/03/30 02:16:45;;;;;;;12.27;10.30;;;;;21.10;99508.00;;;;2074301;28;20242;-48
2022/03/30 02:17:46;;;;;;;14.20;9.70;;;;;21.10;99509.00;;;;2077646;28;20214;-48
2022/03/30 02:18:46;;;;;;;10.13;9.07;;;;;21.10;99510.00;;;;2079579;28;20744;-47
2022/03/30 02:19:47;;;;;;;10.20;8.97;;;;;21.00;99518.00;;;;2071421;28;20562;-49
2022/03/30 02:20:47;;;;;;;10.13;9.13;;;;;21.10;99511.00;;;;2076400;28;20229;-48
2022/03/30 02:21:47;;;;;;;11.50;9.30;;;;;21.10;99510.00;;;;2079304;28;20214;-49
2022/03/30 02:22:48;;;;;;;10.37;8.90;;;;;21.10;99511.00;;;;2078909;28;20209;-49
2022/03/30 02:23:49;;;;;;;13.07;9.10;;;;;21.00;99506.00;;;;2075636;28;20234;-49
2022/03/30 02:24:50;;;;;;;10.00;8.95;;;;;21.00;99510.00;;;;2078971;28;20708;-49
2022/03/30 02:25:50;;;;;;;11.02;9.23;;;;;21.00;99511.00;;;;2078750;28;20206;-49
2022/03/30 02:26:51;;;;;;;12.13;8.97;;;;;21.00;99514.00;;;;2079340;28;20324;-48
2022/03/30 02:27:51;;;;;;;10.30;9.30;;;;;21.00;99508.00;;;;2079386;28;20210;-48
2022/03/30 02:28:52;;;;;;;10.90;9.70;;;;;21.00;99497.00;;;;2078112;28;20213;-49
2022/03/30 02:29:53;;;;;;;10.67;9.43;;;;;21.00;99499.00;;;;2073531;28;20268;-49
2022/03/30 02:30:54;;;;;;;10.23;9.20;;;;;21.00;99499.00;;;;2075952;28;20690;-49
2022/03/30 02:31:55;;;;;;;12.33;9.77;;;;;21.10;99497.00;;;;2071121;28;20233;-49
2022/03/30 02:32:57;;;;;;;11.15;8.93;;;;;21.10;99495.00;;;;2071102;28;20218;-49
2022/03/30 02:33:57;;;;;;;10.18;9.15;;;;;21.00;99494.00;;;;2070786;28;20210;-48
2022/03/30 02:34:58;;;;;;;13.60;9.77;;;;;21.10;99508.00;;;;2074631;28;20866;-48
2022/03/30 02:35:58;;;;;;;10.83;9.37;;;;;21.00;99503.00;;;;2070673;28;20699;-48
2022/03/30 02:37:00;;;;;;;10.57;8.90;;;;;21.00;99500.00;;;;2070856;28;20670;-49
2022/03/30 02:38:00;;;;;;;10.98;9.43;;;;;21.00;99494.00;;;;2074655;28;20271;-48
2022/03/30 02:39:01;;;;;;;10.63;9.43;;;;;21.00;99494.00;;;;2078168;28;20319;-49
2022/03/30 02:40:01;;;;;;;10.30;9.20;;;;;21.00;99492.00;;;;2075018;28;20218;-48
2022/03/30 02:41:03;;;;;;;10.67;8.40;;;;;21.00;99494.00;;;;2070827;28;20218;-48
2022/03/30 02:42:03;;;;;;;10.55;9.50;;;;;21.00;99487.00;;;;2070966;28;20222;-49
2022/03/30 02:43:04;;;;;;;10.10;9.10;;;;;21.00;99486.00;;;;2073999;28;20225;-49
2022/03/30 02:44:04;;;;;;;11.10;9.67;;;;;21.00;99486.00;;;;2074940;28;20305;-49
2022/03/30 02:45:05;;;;;;;10.33;9.27;;;;;21.00;99488.00;;;;2079020;28;20221;-49
2022/03/30 02:46:06;;;;;;;10.50;9.37;;;;;21.00;99491.00;;;;2078149;28;20648;-49
2022/03/30 02:47:06;;;;;;;10.80;9.70;;;;;21.00;99481.00;;;;2075274;28;20491;-49
2022/03/30 02:48:19;;;;;;;11.03;9.30;;;;;21.00;99485.00;;;;2075044;28;20834;-49
2022/03/30 02:49:19;;;;;;;13.93;9.20;;;;;21.00;99476.00;;;;2071179;28;20218;-48
2022/03/30 02:50:19;;;;;;;10.80;9.40;;;;;21.00;99472.00;;;;2070989;28;20217;-48
2022/03/30 02:51:20;;;;;;;10.97;9.80;;;;;21.00;99468.00;;;;2074656;28;20220;-48
2022/03/30 02:52:20;;;;;;;10.70;9.33;;;;;21.00;99468.00;;;;2075517;28;20218;-49
2022/03/30 02:53:21;;;;;;;10.10;9.10;;;;;21.00;99474.00;;;;2077179;28;20248;-49
2022/03/30 02:54:21;;;;;;;12.03;9.30;;;;;21.00;99465.00;;;;2071995;28;20225;-49
2022/03/30 02:55:21;;;;;;;12.23;9.73;;;;;21.00;99467.00;;;;2074181;28;20228;-48
2022/03/30 02:56:21;;;;;;;10.90;9.07;;;;;21.00;99466.00;;;;2078314;28;20243;-48
2022/03/30 02:57:22;;;;;;;11.00;9.20;;;;;21.00;99467.00;;;;2076510;28;20210;-49
2022/03/30 02:58:22;;;;;;;12.57;9.70;;;;;21.00;99468.00;;;;2070862;28;20238;-49
2022/03/30 02:59:23;;;;;;;9.83;8.83;;;;;21.00;99462.00;;;;2070106;28;20237;-49
2022/03/30 03:00:23;;;;;;;10.60;9.50;;;;;21.00;99465.00;;;;2071088;28;20245;-49
2022/03/30 03:01:24;;;;;;;11.70;9.57;;;;;21.00;99460.00;;;;2073362;28;20210;-49
2022/03/30 03:02:24;;;;;;;10.40;9.33;;;;;21.00;99458.00;;;;2079212;28;20810;-49
2022/03/30 03:03:25;;;;;;;11.00;9.90;;;;;21.00;99452.00;;;;2078402;28;20241;-48
2022/03/30 03:04:25;;;;;;;12.43;9.37;;;;;21.00;99465.00;;;;2075607;28;20294;-48
2022/03/30 03:05:27;;;;;;;12.43;9.80;;;;;21.00;99461.00;;;;2074359;28;20214;-49
2022/03/30 03:06:28;;;;;;;10.65;9.40;;;;;21.00;99466.00;;;;2078875;28;20262;-49
2022/03/30 03:07:28;;;;;;;12.23;9.53;;;;;21.00;99460.00;;;;2078819;28;20685;-49
2022/03/30 03:08:28;;;;;;;10.50;9.40;;;;;21.00;99468.00;;;;2077876;28;20681;-49
2022/03/30 03:09:29;;;;;;;9.50;8.50;;;;;21.00;99469.00;;;;2073054;28;20717;-48
2022/03/30 03:10:30;;;;;;;12.40;9.40;;;;;21.00;99457.00;;;;2079136;28;20218;-48
2022/03/30 03:11:30;;;;;;;13.45;9.57;;;;;21.00;99463.00;;;;2078372;28;20222;-49
2022/03/30 03:12:30;;;;;;;10.60;9.43;;;;;21.00;99468.00;;;;2078425;28;20311;-48
2022/03/30 03:13:31;;;;;;;11.67;9.33;;;;;21.00;99467.00;;;;2077896;28;20224;-48
2022/03/30 03:14:31;;;;;;;9.93;8.90;;;;;21.00;99464.00;;;;2078591;28;20214;-49
2022/03/30 03:15:32;;;;;;;10.93;9.57;;;;;21.00;99458.00;;;;2076569;28;20513;-55
2022/03/30 03:16:33;;;;;;;11.20;9.48;;;;;21.00;99468.00;;;;2078424;28;20213;-49
2022/03/30 03:17:33;;;;;;;9.77;8.70;;;;;21.00;99466.00;;;;2078780;28;20708;-49
2022/03/30 03:18:35;;;;;;;11.03;9.07;;;;;21.00;99462.00;;;;2076314;28;20214;-49
2022/03/30 03:19:36;;;;;;;11.18;10.07;;;;;21.00;99459.00;;;;2070180;28;20258;-48
2022/03/30 03:20:36;;;;;;;11.10;9.37;;;;;21.00;99456.00;;;;2070525;28;20584;-49
2022/03/30 03:21:36;;;;;;;9.93;8.77;;;;;21.00;99460.00;;;;2070778;28;20586;-49
2022/03/30 03:22:37;;;;;;;11.27;9.67;;;;;20.90;99455.00;;;;2070742;28;20236;-49
2022/03/30 03:23:38;;;;;;;9.50;8.60;;;;;20.90;99449.00;;;;2070848;28;20222;-49
2022/03/30 03:24:38;;;;;;;10.80;9.00;;;;;20.90;99456.00;;;;2070813;28;20973;-48
2022/03/30 03:25:40;;;;;;;11.20;10.03;;;;;20.90;99453.00;;;;2070026;28;20237;-49
2022/03/30 03:26:40;;;;;;;12.15;10.35;;;;;21.00;99457.00;;;;2070812;28;20267;-48
2022/03/30 03:27:41;;;;;;;10.90;9.30;;;;;21.00;99455.00;;;;2074400;28;20478;-49
2022/03/30 03:28:41;;;;;;;9.77;8.73;;;;;20.90;99457.00;;;;2078844;28;20213;-48
2022/03/30 03:29:41;;;;;;;11.10;9.80;;;;;20.90;99456.00;;;;2079024;28;20715;-49
2022/03/30 03:30:42;;;;;;;10.13;8.90;;;;;20.90;99455.00;;;;2078839;28;20685;-48
2022/03/30 03:31:42;;;;;;;9.90;8.90;;;;;20.90;99461.00;;;;2078762;28;20764;-49
2022/03/30 03:32:42;;;;;;;12.40;8.63;;;;;20.90;99459.00;;;;2078547;28;20221;-49
2022/03/30 03:33:43;;;;;;;9.83;8.57;;;;;20.90;99466.00;;;;2078509;28;20715;-48
2022/03/30 03:34:43;;;;;;;12.13;9.57;;;;;20.90;99460.00;;;;2072847;28;20234;-49
2022/03/30 03:35:44;;;;;;;12.47;10.00;;;;;20.90;99450.00;;;;2069747;28;20694;-49
2022/03/30 03:36:44;;;;;;;9.70;8.70;;;;;21.00;99454.00;;;;2070670;28;20577;-48
2022/03/30 03:37:45;;;;;;;12.47;9.73;;;;;21.00;99457.00;;;;2070608;28;20450;-49
2022/03/30 03:38:45;;;;;;;10.70;9.60;;;;;20.90;99458.00;;;;2070793;28;20218;-49
2022/03/30 03:39:45;;;;;;;10.50;9.40;;;;;20.90;99453.00;;;;2073708;28;20226;-49
2022/03/30 03:40:46;;;;;;;10.97;8.53;;;;;20.90;99457.00;;;;2078674;28;20222;-49
2022/03/30 03:41:46;;;;;;;10.53;8.67;;;;;21.00;99455.00;;;;2078729;28;20241;-49
2022/03/30 03:42:47;;;;;;;10.17;8.30;;;;;20.90;99461.00;;;;2078635;28;20224;-48
2022/03/30 03:43:47;;;;;;;12.37;9.60;;;;;20.90;99457.00;;;;2072084;28;20218;-49
2022/03/30 03:44:48;;;;;;;10.00;9.00;;;;;20.90;99449.00;;;;2070547;28;20465;-49
2022/03/30 03:45:48;;;;;;;14.50;8.73;;;;;20.90;99460.00;;;;2069416;28;20441;-49
2022/03/30 03:46:49;;;;;;;15.47;9.20;;;;;20.90;99454.00;;;;2070243;28;20218;-49
2022/03/30 03:47:51;;;;;;;10.13;9.00;;;;;20.90;99452.00;;;;2069609;28;20221;-49
2022/03/30 03:48:51;;;;;;;11.07;9.88;;;;;20.90;99452.00;;;;2070137;28;20237;-50
2022/03/30 03:49:51;;;;;;;10.90;9.20;;;;;20.90;99451.00;;;;2068968;28;20210;-49
2022/03/30 03:50:52;;;;;;;12.50;9.57;;;;;20.90;99448.00;;;;2070417;28;20213;-49
2022/03/30 03:51:52;;;;;;;10.00;8.90;;;;;20.90;99449.00;;;;2070679;28;20222;-49
2022/03/30 03:52:53;;;;;;;10.57;9.33;;;;;20.90;99447.00;;;;2070640;28;20304;-50
2022/03/30 03:53:53;;;;;;;13.53;9.70;;;;;20.90;99445.00;;;;2069626;28;20232;-50
2022/03/30 03:54:53;;;;;;;11.53;9.80;;;;;20.90;99445.00;;;;2070292;28;20217;-50
2022/03/30 03:55:54;;;;;;;11.87;9.40;;;;;20.90;99447.00;;;;2069627;28;20698;-49
2022/03/30 03:56:54;;;;;;;11.00;9.27;;;;;21.00;99443.00;;;;2070384;28;20705;-50
2022/03/30 03:57:54;;;;;;;10.07;9.00;;;;;20.90;99447.00;;;;2070526;28;20698;-50
2022/03/30 03:58:55;;;;;;;12.33;9.93;;;;;20.90;99440.00;;;;2070439;28;20865;-50
2022/03/30 03:59:56;;;;;;;11.00;9.85;;;;;20.90;99441.00;;;;2070723;28;20241;-49
2022/03/30 04:00:56;;;;;;;12.10;9.60;;;;;20.90;99433.00;;;;2073838;28;20225;-49
2022/03/30 04:01:56;;;;;;;10.37;9.30;;;;;20.90;99441.00;;;;2071408;28;20206;-49
2022/03/30 04:02:57;;;;;;;10.60;9.37;;;;;20.90;99452.00;;;;2076654;28;21039;-49
2022/03/30 04:03:57;;;;;;;11.53;9.90;;;;;20.90;99441.00;;;;2068364;28;20741;-49
2022/03/30 04:04:57;;;;;;;10.30;9.23;;;;;20.90;99442.00;;;;2069354;28;22119;-49
2022/03/30 04:05:58;;;;;;;10.00;8.93;;;;;20.90;99431.00;;;;2072886;28;20750;-49
2022/03/30 04:06:58;;;;;;;9.93;8.90;;;;;20.90;99442.00;;;;2077624;28;20723;-49
2022/03/30 04:07:58;;;;;;;10.07;9.00;;;;;20.90;99439.00;;;;2072417;28;20678;-49
2022/03/30 04:08:59;;;;;;;12.53;9.47;;;;;20.90;99440.00;;;;2072875;28;20225;-49
2022/03/30 04:10:00;;;;;;;10.13;9.13;;;;;20.90;99444.00;;;;2071294;28;20313;-49
2022/03/30 04:11:00;;;;;;;11.32;10.10;;;;;20.90;99450.00;;;;2073981;28;20283;-49
2022/03/30 04:12:01;;;;;;;11.13;9.80;;;;;20.90;99444.00;;;;2070691;28;20635;-50
2022/03/30 04:13:02;;;;;;;11.47;10.27;;;;;20.90;99444.00;;;;2070523;28;20598;-49
2022/03/30 04:14:02;;;;;;;12.05;10.80;;;;;20.90;99442.00;;;;2077638;28;20300;-50
2022/03/30 04:15:03;;;;;;;13.17;11.80;;;;;20.90;99444.00;;;;2077993;28;20213;-49
2022/03/30 04:16:04;;;;;;;14.40;12.70;;;;;20.90;99439.00;;;;2071736;28;20225;-49
2022/03/30 04:17:04;;;;;;;15.53;13.03;;;;;20.90;99437.00;;;;2069626;28;20228;-49
2022/03/30 04:18:07;;;;;;;16.97;13.30;;;;;20.90;99435.00;;;;2068461;28;20229;-49
2022/03/30 04:19:07;;;;;;;15.95;14.25;;;;;20.90;99443.00;;;;2070309;28;20213;-49
2022/03/30 04:20:08;;;;;;;20.27;16.63;;;;;20.80;99434.00;;;;2070498;28;20218;-49
2022/03/30 04:21:09;;;;;;;21.33;17.17;;;;;20.90;99440.00;;;;2072854;28;20213;-50
2022/03/30 04:22:09;;;;;;;22.17;17.50;;;;;20.90;99418.00;;;;2075045;28;20214;-49
2022/03/30 04:23:10;;;;;;;22.00;19.20;;;;;20.80;99427.00;;;;2070148;28;20218;-50
2022/03/30 04:24:10;;;;;;;27.50;22.10;;;;;20.80;99432.00;;;;2071920;28;20214;-49
2022/03/30 04:25:11;;;;;;;30.17;22.17;;;;;20.80;99425.00;;;;2072139;28;20606;-49
2022/03/30 04:26:11;;;;;;;28.53;21.77;;;;;20.80;99426.00;;;;2069707;28;20209;-49
2022/03/30 04:27:11;;;;;;;28.87;23.70;;;;;20.80;99425.00;;;;2070236;28;20297;-49
2022/03/30 04:28:14;;;;;;;27.73;23.87;;;;;20.80;99425.00;;;;2070839;28;21721;-53
2022/03/30 04:29:14;;;;;;;29.98;25.30;;;;;20.80;99415.00;;;;2078650;28;20233;-50
2022/03/30 04:30:16;;;;;;;30.70;26.53;;;;;20.80;99418.00;;;;2078609;28;20220;-50
2022/03/30 04:31:16;;;;;;;28.67;23.88;;;;;20.90;99416.00;;;;2071349;28;20225;-50
2022/03/30 04:32:16;;;;;;;31.37;25.50;;;;;20.80;99416.00;;;;2078439;28;20217;-50
2022/03/30 04:33:17;;;;;;;32.90;26.10;;;;;20.80;99416.00;;;;2077715;28;20217;-49
2022/03/30 04:34:17;;;;;;;29.70;25.07;;;;;20.80;99412.00;;;;2078147;28;20580;-50
2022/03/30 04:35:18;;;;;;;34.00;26.90;;;;;20.80;99412.00;;;;2077471;28;20214;-50
2022/03/30 04:36:18;;;;;;;31.60;26.17;;;;;20.80;99410.00;;;;2070175;28;20236;-49
2022/03/30 04:37:20;;;;;;;32.47;26.17;;;;;20.80;99416.00;;;;2069496;28;20859;-50
2022/03/30 04:38:21;;;;;;;30.23;25.67;;;;;20.80;99413.00;;;;2067174;28;20209;-49
2022/03/30 04:39:21;;;;;;;30.77;24.90;;;;;20.80;99408.00;;;;2070271;28;20246;-49
2022/03/30 04:40:22;;;;;;;28.37;24.63;;;;;20.80;99412.00;;;;2070341;28;20270;-50
2022/03/30 04:41:23;;;;;;;30.25;25.20;;;;;20.80;99406.00;;;;2073131;28;20769;-49
2022/03/30 04:42:23;;;;;;;29.57;24.23;;;;;20.80;99407.00;;;;2078498;28;20209;-49
2022/03/30 04:43:24;;;;;;;29.90;23.73;;;;;20.80;99409.00;;;;2077568;28;20225;-50
2022/03/30 04:44:25;;;;;;;28.60;23.60;;;;;20.80;99406.00;;;;2070303;28;20713;-49
2022/03/30 04:45:25;;;;;;;25.95;21.88;;;;;20.80;99404.00;;;;2062212;28;20317;-49
2022/03/30 04:46:26;;;;;;;27.47;23.30;;;;;20.80;99405.00;;;;2077490;28;20217;-49
2022/03/30 04:47:26;;;;;;;25.23;21.10;;;;;20.80;99402.00;;;;2078336;28;20232;-50
2022/03/30 04:48:26;;;;;;;26.60;22.40;;;;;20.80;99396.00;;;;2078065;28;20247;-49
2022/03/30 04:49:27;;;;;;;25.70;21.73;;;;;20.80;99391.00;;;;2078320;28;20581;-50
2022/03/30 04:50:27;;;;;;;26.57;21.97;;;;;20.80;99404.00;;;;2074720;28;20566;-49
2022/03/30 04:51:29;;;;;;;26.73;22.00;;;;;20.80;99404.00;;;;2078243;28;20917;-50
2022/03/30 04:52:32;;;;;;;25.60;20.55;;;;;20.80;99401.00;;;;2078404;28;20788;-50
2022/03/30 04:53:32;;;;;;;27.33;22.20;;;;;20.80;99404.00;;;;2078439;28;20281;-49
2022/03/30 04:54:33;;;;;;;24.03;20.47;;;;;20.80;99407.00;;;;2078305;28;20558;-50
2022/03/30 04:55:33;;;;;;;24.87;19.63;;;;;20.80;99410.00;;;;2077348;28;20209;-49
2022/03/30 04:56:33;;;;;;;24.50;20.20;;;;;20.80;99407.00;;;;2078125;28;20217;-50
2022/03/30 04:57:34;;;;;;;26.57;20.10;;;;;20.80;99411.00;;;;2077816;28;20212;-50
2022/03/30 04:58:34;;;;;;;21.40;19.10;;;;;20.80;99406.00;;;;2078422;28;20213;-49
2022/03/30 04:59:34;;;;;;;22.80;19.13;;;;;20.80;99404.00;;;;2078103;28;20232;-49
2022/03/30 05:00:35;;;;;;;23.37;19.70;;;;;20.80;99403.00;;;;2078353;28;20557;-50
2022/03/30 05:01:35;;;;;;;22.87;19.17;;;;;20.80;99399.00;;;;2078366;28;20621;-50
2022/03/30 05:02:36;;;;;;;22.90;17.83;;;;;20.80;99411.00;;;;2077909;28;20241;-50